1878 NOT_NAMED (1878345S09072)


IBTrACS version v04r00. Visit IBTrACS website for data access.
Please direct all questions to the IBTrACS Q and A forum

Storm track - Intensity - Wind Radii - Intensity Data - Source Data - All data

Summary Information

Storm ID 1878345S09072
Start Dec 11 06Z
End Dec 17 06Z
ATCF IDs
Track status Best track data.
Spur track This storm is a spur track associated with the main storm: 1878345S09072

Storm track plot

Map of storm track

Intensity plots

No Intensity information for this storm


Radial wind information

No radial wind information for this storm


Position and Intensity Table

BASIN ISO_TIME_________ NATURE LAT LON
degrees north degrees east
SI 1878-12-11 06:00:00 NR -9.00 72.00
SI 09:00:00 NR -9.10 71.96
SI 12:00:00 NR -9.21 71.91
SI 15:00:00 NR -9.33 71.86
SI 18:00:00 NR -9.49 71.79
SI 21:00:00 NR -9.68 71.71
SI 1878-12-12 00:00:00 NR -9.93 71.60
SI 03:00:00 NR -10.23 71.47
SI 06:00:00 NR -10.60 71.30
SI 09:00:00 NR -11.04 71.10
SI 12:00:00 NR -11.56 70.87
SI 15:00:00 NR -12.13 70.63
SI 18:00:00 NR -12.76 70.39
SI 21:00:00 NR -13.43 70.15
SI 1878-12-13 00:00:00 NR -14.13 69.93
SI 03:00:00 NR -14.86 69.75
SI 06:00:00 NR -15.60 69.60
SI 09:00:00 NR -16.36 69.49
SI 12:00:00 NR -17.14 69.42
SI 15:00:00 NR -17.95 69.38
SI 18:00:00 NR -18.76 69.38
SI 21:00:00 NR -19.56 69.42
SI 1878-12-14 00:00:00 NR -20.34 69.50
SI 03:00:00 NR -21.09 69.63
SI 06:00:00 NR -21.80 69.80
SI 09:00:00 NR -22.38 69.97
SI 12:00:00 NR -22.92 70.18
SI 15:00:00 NR -23.43 70.44
SI 18:00:00 NR -23.92 70.74
SI 21:00:00 NR -24.41 71.09
SI 1878-12-15 00:00:00 NR -24.90 71.48
SI 03:00:00 NR -25.43 71.92
SI 06:00:00 NR -26.00 72.40
SI 09:00:00 NR -26.75 72.96
SI 12:00:00 NR -27.55 73.58
SI 15:00:00 NR -28.38 74.24
SI 18:00:00 NR -29.19 74.93
SI 21:00:00 NR -29.98 75.64
SI 1878-12-16 00:00:00 NR -30.71 76.33
SI 03:00:00 NR -31.36 76.99
SI 06:00:00 NR -31.90 77.60
SI 09:00:00 NR -32.32 78.14
SI 12:00:00 NR -32.62 78.61
SI 15:00:00 NR -32.83 79.02
SI 18:00:00 NR -32.96 79.38
SI 21:00:00 NR -33.03 79.69
SI 1878-12-17 00:00:00 NR -33.04 79.98
SI 03:00:00 NR -33.03 80.25
SI 06:00:00 NR -33.00 80.50

Source Information

Agency Information
USA
TOKYO
CMA
HKO
NEWDELHI
REUNION WMO-Best-Tracks.txt:Line=1160:xxxx878171
BOM
NADI
WELLINGTON
DS824
TD9636
TD9635
NEUMANN
MLC

All available IBTrACS Data

SEASON BASIN SUBBASIN ISO_TIME_________ NATURE LAT LON WMO AGENCY DIST2LAND LANDFALL IFLAG USA SSHS REUNION LAT REUNION LON REUNION TYPE REUNION TNUM STORM SPEED STORM DIR
Year degrees north degrees east km km 1 degrees north degrees east 1 kts degrees
1879 SI MM 1878-12-11 06:00:00 NR -9.00 72.00 reunion 1916 1916 _____O________ -1 -9.00 72.00 99 9.90 2 201
1879 SI MM 09:00:00 NR -9.10 71.96 1926 1926 _____P________ -1 -9.10 71.96 99 2 203
1879 SI MM 12:00:00 NR -9.21 71.91 1941 1941 _____P________ -1 -9.21 71.91 99 3 202
1879 SI MM 15:00:00 NR -9.33 71.86 1946 1923 _____P________ -1 -9.33 71.86 99 3 202
1879 SI MM 18:00:00 NR -9.49 71.79 1923 1900 _____P________ -1 -9.49 71.79 99 4 203
1879 SI MM 21:00:00 NR -9.68 71.71 1900 1877 _____P________ -1 -9.68 71.71 99 5 203
1879 SI MM 1878-12-12 00:00:00 NR -9.93 71.60 1877 1848 _____P________ -1 -9.93 71.60 99 6 203
1879 SI MM 03:00:00 NR -10.23 71.47 1848 1803 _____P________ -1 -10.23 71.47 99 7 204
1879 SI MM 06:00:00 NR -10.60 71.30 reunion 1803 1758 _____O________ -1 -10.60 71.30 99 9.90 9 204
1879 SI MM 09:00:00 NR -11.04 71.10 1758 1707 _____P________ -1 -11.04 71.10 99 11 204
1879 SI MM 12:00:00 NR -11.56 70.87 1701 1642 _____P________ -1 -11.56 70.87 99 12 203
1879 SI MM 15:00:00 NR -12.13 70.63 1642 1586 _____P________ -1 -12.13 70.63 99 13 202
1879 SI MM 18:00:00 NR -12.76 70.39 1580 1526 _____P________ -1 -12.76 70.39 99 14 200
1879 SI MM 21:00:00 NR -13.43 70.15 1526 1459 _____P________ -1 -13.43 70.15 99 14 198
1879 SI MM 1878-12-13 00:00:00 NR -14.13 69.93 1459 1412 _____P________ -1 -14.13 69.93 99 15 195
1879 SI MM 03:00:00 NR -14.86 69.75 1398 1354 _____P________ -1 -14.86 69.75 99 15 192
1879 SI MM 06:00:00 NR -15.60 69.60 reunion 1354 1313 _____O________ -1 -15.60 69.60 99 9.90 15 189
1879 SI MM 09:00:00 NR -16.36 69.49 1309 1272 _____P________ -1 -16.36 69.49 99 16 187
1879 SI MM 12:00:00 NR -17.14 69.42 1272 1247 _____P________ -1 -17.14 69.42 99 16 184
1879 SI MM 15:00:00 NR -17.95 69.38 1247 1228 _____P________ -1 -17.95 69.38 99 16 181
1879 SI MM 18:00:00 NR -18.76 69.38 1226 1215 _____P________ -1 -18.76 69.38 99 16 179
1879 SI MM 21:00:00 NR -19.56 69.42 1214 1211 _____P________ -1 -19.56 69.42 99 16 176
1879 SI MM 1878-12-14 00:00:00 NR -20.34 69.50 1219 1219 _____P________ -1 -20.34 69.50 99 16 173
1879 SI MM 03:00:00 NR -21.09 69.63 1230 1230 _____P________ -1 -21.09 69.63 99 15 169
1879 SI MM 06:00:00 NR -21.80 69.80 reunion 1255 1255 _____O________ -1 -21.80 69.80 99 9.90 13 166
1879 SI MM 09:00:00 NR -22.38 69.97 1284 1284 _____P________ -1 -22.38 69.97 99 12 163
1879 SI MM 12:00:00 NR -22.92 70.18 1313 1313 _____P________ -1 -22.92 70.18 99 11 157
1879 SI MM 15:00:00 NR -23.43 70.44 1344 1344 _____P________ -1 -23.43 70.44 99 11 153
1879 SI MM 18:00:00 NR -23.92 70.74 1387 1387 _____P________ -1 -23.92 70.74 99 11 149
1879 SI MM 21:00:00 NR -24.41 71.09 1441 1441 _____P________ -1 -24.41 71.09 99 12 146
1879 SI MM 1878-12-15 00:00:00 NR -24.90 71.48 1495 1495 _____P________ -1 -24.90 71.48 99 13 144
1879 SI MM 03:00:00 NR -25.43 71.92 1551 1551 _____P________ -1 -25.43 71.92 99 14 143
1879 SI MM 06:00:00 NR -26.00 72.40 reunion 1620 1620 _____O________ -1 -26.00 72.40 99 9.90 16 145
1879 SI MM 09:00:00 NR -26.75 72.96 1707 1707 _____P________ -1 -26.75 72.96 99 19 146
1879 SI MM 12:00:00 NR -27.55 73.58 1795 1795 _____P________ -1 -27.55 73.58 99 20 145
1879 SI MM 15:00:00 NR -28.38 74.24 1885 1885 _____P________ -1 -28.38 74.24 99 20 144
1879 SI MM 18:00:00 NR -29.19 74.93 1984 1984 _____P________ -1 -29.19 74.93 99 20 143
1879 SI MM 21:00:00 NR -29.98 75.64 2084 2084 _____P________ -1 -29.98 75.64 99 19 141
1879 SI MM 1878-12-16 00:00:00 NR -30.71 76.33 2104 2051 _____P________ -1 -30.71 76.33 99 18 140
1879 SI MM 03:00:00 NR -31.36 76.99 2043 2003 _____P________ -1 -31.36 76.99 99 16 138
1879 SI MM 06:00:00 NR -31.90 77.60 reunion 2003 1972 _____O________ -1 -31.90 77.60 99 9.90 14 135
1879 SI MM 09:00:00 NR -32.32 78.14 1972 1951 _____P________ -1 -32.32 78.14 99 11 130
1879 SI MM 12:00:00 NR -32.62 78.61 1954 1939 _____P________ -1 -32.62 78.61 99 9 125
1879 SI MM 15:00:00 NR -32.83 79.02 1945 1933 _____P________ -1 -32.83 79.02 99 7 118
1879 SI MM 18:00:00 NR -32.96 79.38 1936 1936 _____P________ -1 -32.96 79.38 99 6 109
1879 SI MM 21:00:00 NR -33.03 79.69 1945 1945 _____P________ -1 -33.03 79.69 99 5 99
1879 SI MM 1878-12-17 00:00:00 NR -33.04 79.98 1955 1955 _____P________ -1 -33.04 79.98 99 5 90
1879 SI MM 03:00:00 NR -33.03 80.25 1962 1962 _____P________ -1 -33.03 80.25 99 4 84
1879 SI MM 06:00:00 NR -33.00 80.50 1972 _____O________ -1 -33.00 80.50 99 9.90 4 82